createdAt,value
2023-10-12T00:01:02.916Z,58
2023-10-12T00:03:33.563Z,58
2023-10-12T00:06:04.263Z,58
2023-10-12T00:08:34.997Z,58
2023-10-12T00:11:05.776Z,58
2023-10-12T00:13:36.167Z,58
2023-10-12T00:16:06.907Z,58
2023-10-12T00:18:37.482Z,58
2023-10-12T00:21:07.900Z,58
2023-10-12T00:23:38.681Z,58
2023-10-12T00:26:09.080Z,58
2023-10-12T00:28:40.196Z,59
2023-10-12T00:31:10.615Z,58
2023-10-12T00:33:41.490Z,59
2023-10-12T00:36:10.684Z,58
2023-10-12T00:38:40.878Z,58
2023-10-12T00:41:11.980Z,58
2023-10-12T00:43:42.755Z,58
2023-10-12T00:46:13.357Z,58
2023-10-12T00:48:43.918Z,57
2023-10-12T00:51:15.275Z,58
2023-10-12T00:53:45.721Z,57
2023-10-12T00:56:16.335Z,57
2023-10-12T00:58:46.902Z,57
2023-10-12T01:01:18.442Z,57
2023-10-12T01:03:47.027Z,57
2023-10-12T01:06:17.561Z,57
2023-10-12T01:08:46.825Z,57
2023-10-12T01:11:17.818Z,57
2023-10-12T01:13:48.641Z,57
2023-10-12T01:16:19.359Z,57
2023-10-12T01:18:50.045Z,57
2023-10-12T01:21:20.790Z,57
2023-10-12T01:23:51.195Z,57
2023-10-12T01:26:23.134Z,57
2023-10-12T01:28:54.361Z,57
2023-10-12T01:31:25.363Z,57
2023-10-12T01:33:54.492Z,57
2023-10-12T01:36:25.354Z,57
2023-10-12T01:38:56.260Z,57
2023-10-12T01:41:27.424Z,57
2023-10-12T01:43:58.034Z,57
2023-10-12T01:46:28.385Z,57
2023-10-12T01:49:00.104Z,57
2023-10-12T01:51:30.725Z,57
2023-10-12T01:54:02.553Z,57
2023-10-12T01:56:33.434Z,57
2023-10-12T01:59:04.607Z,57
2023-10-12T02:01:35.378Z,57
2023-10-12T02:04:06.237Z,57
2023-10-12T02:06:37.162Z,57
2023-10-12T02:09:08.114Z,57
2023-10-12T02:11:39.080Z,57
2023-10-12T02:14:09.897Z,57
2023-10-12T02:16:41.100Z,57
2023-10-12T02:19:11.464Z,57
2023-10-12T02:21:42.005Z,57
2023-10-12T02:24:12.379Z,57
2023-10-12T02:26:43.209Z,57
2023-10-12T02:29:14.215Z,58
2023-10-12T02:31:45.622Z,58
2023-10-12T02:34:15.869Z,58
2023-10-12T02:36:46.978Z,58
2023-10-12T02:39:17.946Z,58
2023-10-12T02:41:48.690Z,58
2023-10-12T02:44:19.600Z,58
2023-10-12T02:46:50.116Z,59
2023-10-12T02:49:21.273Z,58
2023-10-12T02:51:52.038Z,59
2023-10-12T02:54:22.569Z,59
2023-10-12T02:56:53.442Z,59
2023-10-12T02:59:25.039Z,59
2023-10-12T03:01:56.129Z,59
2023-10-12T03:04:26.993Z,59
2023-10-12T03:06:57.600Z,59
2023-10-12T03:09:28.136Z,59
2023-10-12T03:11:59.020Z,59
2023-10-12T03:14:29.683Z,59
2023-10-12T03:17:00.683Z,58
2023-10-12T03:19:31.469Z,59
2023-10-12T03:22:02.042Z,58
2023-10-12T03:24:33.134Z,58
2023-10-12T03:27:04.330Z,58
2023-10-12T03:29:34.992Z,58
2023-10-12T03:32:06.095Z,59
2023-10-12T03:34:35.707Z,59
2023-10-12T03:37:06.832Z,59
2023-10-12T03:39:36.970Z,59
2023-10-12T03:42:07.501Z,59
2023-10-12T03:44:38.330Z,58
2023-10-12T03:47:09.211Z,58
2023-10-12T03:49:40.198Z,59
2023-10-12T03:52:10.673Z,59
2023-10-12T03:54:41.382Z,59
2023-10-12T03:57:12.261Z,59
2023-10-12T03:59:43.684Z,59
2023-10-12T04:02:14.518Z,59
2023-10-12T04:04:45.214Z,59
2023-10-12T04:07:13.838Z,59
2023-10-12T04:09:44.926Z,59
2023-10-12T04:12:15.208Z,60
2023-10-12T04:14:45.952Z,59
2023-10-12T04:17:16.710Z,60
2023-10-12T04:19:47.247Z,59
2023-10-12T04:22:17.736Z,60
2023-10-12T04:24:48.751Z,60
2023-10-12T04:27:19.560Z,60
2023-10-12T04:29:50.441Z,60
2023-10-12T04:32:21.404Z,60
2023-10-12T04:34:52.430Z,61
2023-10-12T04:37:23.467Z,61
2023-10-12T04:39:53.930Z,61
2023-10-12T04:42:24.473Z,60
2023-10-12T04:44:55.233Z,60
2023-10-12T04:47:26.344Z,60
2023-10-12T04:49:56.947Z,60
2023-10-12T04:52:28.276Z,60
2023-10-12T04:54:58.776Z,60
2023-10-12T04:57:29.846Z,60
2023-10-12T05:00:00.335Z,60
2023-10-12T05:02:34.416Z,60
2023-10-12T05:05:01.992Z,60
2023-10-12T05:07:32.840Z,60
2023-10-12T05:10:04.022Z,60
2023-10-12T05:12:35.181Z,60
2023-10-12T05:15:06.349Z,60
2023-10-12T05:17:37.410Z,60
2023-10-12T05:20:08.177Z,60
2023-10-12T05:22:38.923Z,60
2023-10-12T05:25:09.871Z,60
2023-10-12T05:27:41.023Z,60
2023-10-12T05:30:11.724Z,60
2023-10-12T05:32:42.738Z,60
2023-10-12T05:35:13.536Z,60
2023-10-12T05:37:44.008Z,60
2023-10-12T05:40:14.974Z,60
2023-10-12T05:42:47.698Z,60
2023-10-12T05:45:16.708Z,60
2023-10-12T05:47:45.614Z,59
2023-10-12T05:50:16.288Z,59
2023-10-12T05:52:47.219Z,59
2023-10-12T05:55:17.490Z,59
2023-10-12T05:57:48.896Z,59
2023-10-12T06:00:19.970Z,59
2023-10-12T06:02:50.946Z,58
2023-10-12T06:05:21.977Z,58
2023-10-12T06:07:52.519Z,58
2023-10-12T06:10:23.076Z,58
2023-10-12T06:12:53.724Z,58
2023-10-12T06:15:24.185Z,58
2023-10-12T06:17:58.852Z,58
2023-10-12T06:20:29.793Z,58
2023-10-12T06:23:00.163Z,57
2023-10-12T06:25:30.755Z,57
2023-10-12T06:28:01.240Z,57
2023-10-12T06:30:31.960Z,57
2023-10-12T06:33:03.386Z,57
2023-10-12T06:35:34.385Z,57
2023-10-12T06:38:07.790Z,57
2023-10-12T06:40:39.292Z,57
2023-10-12T06:43:08.080Z,57
2023-10-12T06:45:38.821Z,57
2023-10-12T06:48:09.361Z,56
2023-10-12T06:50:39.939Z,57
2023-10-12T06:53:12.264Z,57
2023-10-12T06:55:40.969Z,56
2023-10-12T06:58:10.028Z,56
2023-10-12T07:00:38.821Z,56
2023-10-12T07:03:08.194Z,55
2023-10-12T07:05:38.601Z,55
2023-10-12T07:08:09.987Z,56
2023-10-12T07:10:40.749Z,56
2023-10-12T07:13:11.268Z,55
2023-10-12T07:15:42.174Z,56
2023-10-12T07:18:13.043Z,56
2023-10-12T07:20:44.084Z,56
2023-10-12T07:23:14.874Z,56
2023-10-12T07:25:45.746Z,55
2023-10-12T07:28:16.548Z,55
2023-10-12T07:30:47.008Z,55
2023-10-12T07:33:21.222Z,54
2023-10-12T07:35:51.969Z,55
2023-10-12T07:38:22.507Z,55
2023-10-12T07:40:52.949Z,55
2023-10-12T07:43:23.653Z,55
2023-10-12T07:45:54.185Z,55
2023-10-12T07:48:24.583Z,55
2023-10-12T07:50:55.042Z,54
2023-10-12T07:53:25.849Z,54
2023-10-12T07:55:57.432Z,54
2023-10-12T07:58:31.209Z,54
2023-10-12T08:01:01.876Z,53
2023-10-12T08:03:31.976Z,54
2023-10-12T08:06:02.455Z,54
2023-10-12T08:08:32.997Z,54
2023-10-12T08:11:03.263Z,53
2023-10-12T08:13:34.902Z,53
2023-10-12T08:16:04.724Z,52
2023-10-12T08:18:35.078Z,53
2023-10-12T08:21:06.248Z,53
2023-10-12T08:23:36.981Z,53
2023-10-12T08:26:07.827Z,52
2023-10-12T08:28:38.770Z,52
2023-10-12T08:31:12.712Z,53
2023-10-12T08:33:43.092Z,52
2023-10-12T08:36:13.466Z,52
2023-10-12T08:38:44.135Z,52
2023-10-12T08:41:14.445Z,51
2023-10-12T08:43:45.719Z,51
2023-10-12T08:46:16.443Z,51
2023-10-12T08:48:46.811Z,49
2023-10-12T08:51:17.890Z,50
2023-10-12T08:53:48.444Z,49
2023-10-12T08:56:19.223Z,50
2023-10-12T08:58:49.715Z,50
2023-10-12T09:01:21.491Z,49
2023-10-12T09:03:51.812Z,49
2023-10-12T09:06:22.182Z,49
2023-10-12T09:08:51.268Z,49
2023-10-12T09:11:22.051Z,48
2023-10-12T09:13:52.624Z,48
2023-10-12T09:16:23.634Z,48
2023-10-12T09:18:54.215Z,47
2023-10-12T09:21:24.789Z,48
2023-10-12T09:23:58.379Z,47
2023-10-12T09:26:29.529Z,48
2023-10-12T09:29:00.084Z,48
2023-10-12T09:31:31.205Z,48
2023-10-12T09:34:00.904Z,47
2023-10-12T09:36:32.830Z,48
2023-10-12T09:39:03.957Z,47
2023-10-12T09:41:34.870Z,48
2023-10-12T09:44:05.850Z,47
2023-10-12T09:46:36.245Z,47
2023-10-12T09:49:06.727Z,47
2023-10-12T09:51:37.670Z,47
2023-10-12T09:54:07.990Z,46
2023-10-12T09:56:38.585Z,46
2023-10-12T09:59:09.181Z,46
2023-10-12T10:01:39.746Z,46
2023-10-12T10:04:10.668Z,45
2023-10-12T10:06:41.149Z,45
2023-10-12T10:09:12.436Z,45
2023-10-12T10:11:42.873Z,45
2023-10-12T10:14:13.286Z,46
2023-10-12T10:16:43.550Z,46
2023-10-12T10:19:13.992Z,46
2023-10-12T10:21:45.326Z,45
2023-10-12T10:24:16.452Z,45
2023-10-12T10:26:50.328Z,45
2023-10-12T10:29:21.754Z,45
2023-10-12T10:31:52.773Z,44
2023-10-12T10:34:23.892Z,44
2023-10-12T10:36:55.418Z,44
2023-10-12T10:39:25.809Z,44
2023-10-12T10:41:56.424Z,44
2023-10-12T10:44:27.040Z,44
2023-10-12T10:46:57.965Z,44
2023-10-12T10:49:33.552Z,43
2023-10-12T10:51:58.755Z,44
2023-10-12T10:54:29.231Z,43
2023-10-12T10:59:30.747Z,43
2023-10-12T11:02:02.320Z,43
2023-10-12T11:04:32.786Z,42
2023-10-12T11:07:03.387Z,42
2023-10-12T11:09:34.280Z,41
2023-10-12T11:12:04.812Z,42
2023-10-12T11:14:36.437Z,42
2023-10-12T11:17:07.007Z,42
2023-10-12T11:19:37.988Z,42
2023-10-12T11:22:09.585Z,43
2023-10-12T11:24:40.586Z,42
2023-10-12T11:27:11.263Z,42
2023-10-12T11:29:41.846Z,42
2023-10-12T11:32:12.923Z,42
2023-10-12T11:34:43.475Z,42
2023-10-12T11:37:14.029Z,42
2023-10-12T11:39:44.483Z,41
2023-10-12T11:42:14.193Z,41
2023-10-12T11:44:44.486Z,42
2023-10-12T11:47:15.392Z,41
2023-10-12T11:49:46.018Z,41
2023-10-12T11:52:17.178Z,40
2023-10-12T11:54:48.027Z,40
2023-10-12T11:57:18.506Z,41
2023-10-12T11:59:49.653Z,42
2023-10-12T12:02:20.695Z,41
2023-10-12T12:05:05.753Z,40
2023-10-12T12:07:22.220Z,40
2023-10-12T12:09:52.669Z,40
2023-10-12T12:12:23.036Z,39
2023-10-12T12:14:53.512Z,39
2023-10-12T12:17:24.682Z,39
2023-10-12T12:19:55.501Z,40
2023-10-12T12:22:26.436Z,41
2023-10-12T12:24:57.925Z,40
2023-10-12T12:27:28.963Z,39
2023-10-12T12:30:14.226Z,40
2023-10-12T12:32:30.927Z,39
2023-10-12T12:35:01.575Z,40
2023-10-12T12:37:31.975Z,38
2023-10-12T12:40:02.743Z,37
2023-10-12T12:42:33.551Z,36
2023-10-12T12:45:06.451Z,37
2023-10-12T12:47:37.100Z,38
2023-10-12T12:50:07.660Z,37
2023-10-12T12:52:40.448Z,38
2023-10-12T12:55:09.551Z,38
2023-10-12T12:57:40.426Z,36
2023-10-12T13:00:11.658Z,37
2023-10-12T13:02:42.868Z,37
2023-10-12T13:05:11.926Z,37
2023-10-12T13:07:43.166Z,37
2023-10-12T13:10:13.936Z,36
2023-10-12T13:12:47.606Z,36
2023-10-12T13:15:15.097Z,37
2023-10-12T13:17:45.653Z,36
2023-10-12T13:20:16.737Z,35
2023-10-12T13:22:47.410Z,37
2023-10-12T13:25:18.604Z,36
2023-10-12T13:27:49.644Z,36
2023-10-12T13:30:20.337Z,36
2023-10-12T13:32:51.218Z,37
2023-10-12T13:35:20.238Z,37
2023-10-12T13:37:50.364Z,38
2023-10-12T13:40:21.409Z,39
2023-10-12T13:42:52.078Z,40
2023-10-12T13:45:22.940Z,39
2023-10-12T13:47:54.040Z,40
2023-10-12T13:50:24.454Z,40
2023-10-12T13:52:54.883Z,40
2023-10-12T13:55:25.874Z,40
2023-10-12T13:57:56.286Z,40
2023-10-12T14:00:26.669Z,41
2023-10-12T14:02:57.696Z,41
2023-10-12T14:05:28.738Z,41
2023-10-12T14:07:59.095Z,41
2023-10-12T14:10:29.226Z,42
2023-10-12T14:12:59.649Z,42
2023-10-12T14:15:30.829Z,42
2023-10-12T14:18:01.839Z,42
2023-10-12T14:20:32.179Z,42
2023-10-12T14:23:03.207Z,43
2023-10-12T14:25:33.802Z,43
2023-10-12T14:28:04.056Z,43
2023-10-12T14:30:35.050Z,44
2023-10-12T14:33:05.980Z,44
2023-10-12T14:35:36.924Z,44
2023-10-12T14:38:07.785Z,44
2023-10-12T14:40:38.718Z,45
2023-10-12T14:43:09.125Z,45
2023-10-12T14:45:39.976Z,45
2023-10-12T14:48:10.622Z,45
2023-10-12T14:50:41.254Z,45
2023-10-12T14:53:11.597Z,46
2023-10-12T14:55:42.254Z,46
2023-10-12T14:58:12.600Z,46
2023-10-12T15:00:43.121Z,46
2023-10-12T15:03:13.548Z,46
2023-10-12T15:05:42.664Z,46
2023-10-12T15:08:13.568Z,47
2023-10-12T15:10:44.174Z,47
2023-10-12T15:13:14.550Z,47
2023-10-12T15:15:46.488Z,48
2023-10-12T15:18:15.528Z,48
2023-10-12T15:20:46.114Z,48
2023-10-12T15:23:16.604Z,48
2023-10-12T15:25:47.128Z,48
2023-10-12T15:28:17.682Z,48
2023-10-12T15:30:48.221Z,48
2023-10-12T15:33:21.484Z,48
2023-10-12T15:35:52.145Z,48
2023-10-12T15:38:22.635Z,48
2023-10-12T15:40:53.591Z,48
2023-10-12T15:43:24.093Z,49
2023-10-12T15:45:55.120Z,49
2023-10-12T15:48:25.817Z,49
2023-10-12T15:50:56.289Z,49
2023-10-12T15:53:27.137Z,49
2023-10-12T15:55:56.003Z,49
2023-10-12T15:58:25.085Z,49
2023-10-12T16:00:56.153Z,49
2023-10-12T16:03:26.970Z,49
2023-10-12T16:05:57.787Z,49
2023-10-12T16:08:28.198Z,50
2023-10-12T16:10:57.269Z,50
2023-10-12T16:13:28.601Z,50
2023-10-12T16:15:59.312Z,50
2023-10-12T16:18:29.944Z,50
2023-10-12T16:21:00.313Z,51
2023-10-12T16:23:34.026Z,51
2023-10-12T16:26:04.719Z,51
2023-10-12T16:28:34.946Z,51
2023-10-12T16:31:07.410Z,52
2023-10-12T16:33:35.951Z,52
2023-10-12T16:36:06.910Z,52
2023-10-12T16:38:37.884Z,52
2023-10-12T16:41:07.952Z,53
2023-10-12T16:43:38.977Z,53
2023-10-12T16:46:07.144Z,53
2023-10-12T16:48:37.502Z,54
2023-10-12T16:51:07.720Z,54
2023-10-12T16:53:38.153Z,55
2023-10-12T16:56:12.626Z,55
2023-10-12T16:58:43.231Z,55
2023-10-12T17:01:13.688Z,55
2023-10-12T17:03:44.392Z,55
2023-10-12T17:06:14.602Z,56
2023-10-12T17:08:45.350Z,56
2023-10-12T17:11:15.347Z,56
2023-10-12T17:13:45.701Z,56
2023-10-12T17:16:15.992Z,57
2023-10-12T17:18:46.383Z,57
2023-10-12T17:21:16.703Z,57
2023-10-12T17:23:46.869Z,57
2023-10-12T17:26:17.051Z,57
2023-10-12T17:28:47.929Z,58
2023-10-12T17:31:18.915Z,58
2023-10-12T17:33:49.084Z,58
2023-10-12T17:36:19.408Z,58
2023-10-12T17:38:50.182Z,59
2023-10-12T17:41:20.914Z,59
2023-10-12T17:43:50.988Z,59
2023-10-12T17:46:21.379Z,59
2023-10-12T17:48:51.767Z,59
2023-10-12T17:51:22.101Z,59
2023-10-12T17:53:53.260Z,59
2023-10-12T17:56:22.182Z,59
2023-10-12T17:58:52.926Z,60
2023-10-12T18:01:23.912Z,60
2023-10-12T18:03:54.407Z,60
2023-10-12T18:06:24.590Z,60
2023-10-12T18:08:55.259Z,60
2023-10-12T18:11:25.557Z,61
2023-10-12T18:13:55.574Z,61
2023-10-12T18:16:26.340Z,61
2023-10-12T18:18:56.555Z,61
2023-10-12T18:21:26.965Z,61
2023-10-12T18:23:57.361Z,61
2023-10-12T18:26:27.599Z,62
2023-10-12T18:28:59.208Z,62
2023-10-12T18:31:29.575Z,62
2023-10-12T18:34:00.320Z,62
2023-10-12T18:36:30.632Z,62
2023-10-12T18:39:00.853Z,62
2023-10-12T18:41:31.634Z,62
2023-10-12T18:44:02.013Z,63
2023-10-12T18:46:32.470Z,62
2023-10-12T18:49:03.296Z,62
2023-10-12T18:51:34.014Z,63
2023-10-12T18:54:04.809Z,63
2023-10-12T18:56:35.294Z,62
2023-10-12T18:59:05.978Z,62
2023-10-12T19:01:35.045Z,62
2023-10-12T19:04:05.310Z,63
2023-10-12T19:06:35.360Z,63
2023-10-12T19:09:05.751Z,63
2023-10-12T19:11:36.358Z,63
2023-10-12T19:14:06.631Z,64
2023-10-12T19:16:35.673Z,64
2023-10-12T19:19:06.240Z,63
2023-10-12T19:21:36.719Z,63
2023-10-12T19:24:07.239Z,64
2023-10-12T19:26:37.411Z,64
2023-10-12T19:29:06.220Z,64
2023-10-12T19:31:36.835Z,64
2023-10-12T19:34:07.177Z,64
2023-10-12T19:36:37.438Z,63
2023-10-12T19:39:08.138Z,64
2023-10-12T19:41:39.211Z,64
2023-10-12T19:44:09.546Z,64
2023-10-12T19:46:40.813Z,64
2023-10-12T19:49:11.491Z,64
2023-10-12T19:51:42.148Z,64
2023-10-12T19:54:12.269Z,64
2023-10-12T19:56:42.537Z,65
2023-10-12T19:59:12.894Z,65
2023-10-12T20:01:43.402Z,65
2023-10-12T20:04:14.362Z,65
2023-10-12T20:06:43.044Z,65
2023-10-12T20:09:13.441Z,65
2023-10-12T20:11:43.762Z,65
2023-10-12T20:14:14.348Z,65
2023-10-12T20:16:44.983Z,65
2023-10-12T20:19:15.385Z,65
2023-10-12T20:21:46.258Z,65
2023-10-12T20:24:16.526Z,65
2023-10-12T20:26:47.744Z,65
2023-10-12T20:29:18.352Z,65
2023-10-12T20:31:48.694Z,65
2023-10-12T20:34:19.414Z,66
2023-10-12T20:36:49.557Z,66
2023-10-12T20:39:20.120Z,65
2023-10-12T20:41:49.115Z,66
2023-10-12T20:44:20.276Z,66
2023-10-12T20:46:50.800Z,65
2023-10-12T20:49:21.223Z,66
2023-10-12T20:51:51.332Z,66
2023-10-12T20:54:21.716Z,65
2023-10-12T20:56:52.215Z,65
2023-10-12T20:59:24.003Z,65
2023-10-12T21:01:54.449Z,66
2023-10-12T21:04:25.184Z,66
2023-10-12T21:06:55.757Z,66
2023-10-12T21:09:25.620Z,66
2023-10-12T21:11:55.692Z,66
2023-10-12T21:14:26.794Z,66
2023-10-12T21:16:57.239Z,66
2023-10-12T21:19:27.705Z,66
2023-10-12T21:21:58.951Z,66
2023-10-12T21:24:29.256Z,66
2023-10-12T21:26:59.253Z,66
2023-10-12T21:29:29.197Z,66
2023-10-12T21:32:00.141Z,66
2023-10-12T21:34:31.057Z,66
2023-10-12T21:37:02.114Z,66
2023-10-12T21:39:32.385Z,66
2023-10-12T21:42:02.769Z,67
2023-10-12T21:44:33.528Z,66
2023-10-12T21:47:02.870Z,66
2023-10-12T21:49:33.863Z,66
2023-10-12T21:52:04.711Z,66
2023-10-12T21:54:35.038Z,66
2023-10-12T21:57:05.868Z,66
2023-10-12T21:59:36.582Z,66
2023-10-12T22:02:16.277Z,66
2023-10-12T22:04:38.800Z,66
2023-10-12T22:07:09.703Z,66
2023-10-12T22:09:40.149Z,67
2023-10-12T22:12:10.634Z,67
2023-10-12T22:14:41.024Z,67
2023-10-12T22:17:11.380Z,67
2023-10-12T22:19:41.647Z,67
2023-10-12T22:22:12.495Z,67
2023-10-12T22:24:43.286Z,67
2023-10-12T22:27:15.101Z,67
2023-10-12T22:29:44.345Z,67
2023-10-12T22:32:14.776Z,67
2023-10-12T22:34:44.936Z,67
2023-10-12T22:37:15.485Z,67
2023-10-12T22:39:46.210Z,67
2023-10-12T22:42:16.836Z,67
2023-10-12T22:44:47.681Z,67
2023-10-12T22:47:18.635Z,67
2023-10-12T22:49:49.389Z,67
2023-10-12T22:52:19.488Z,67
2023-10-12T22:54:50.840Z,67
2023-10-12T22:57:21.990Z,67
2023-10-12T22:59:52.448Z,67
2023-10-12T23:02:23.310Z,67
2023-10-12T23:04:54.867Z,68
2023-10-12T23:07:26.075Z,68
2023-10-12T23:09:56.454Z,68
2023-10-12T23:12:27.252Z,68
2023-10-12T23:14:57.901Z,68
2023-10-12T23:17:28.823Z,68
2023-10-12T23:19:59.338Z,68
2023-10-12T23:22:29.842Z,68
2023-10-12T23:25:00.400Z,68
2023-10-12T23:27:33.438Z,68
2023-10-12T23:30:01.762Z,68
2023-10-12T23:32:31.868Z,68
2023-10-12T23:35:02.858Z,68
2023-10-12T23:37:34.028Z,68
2023-10-12T23:40:04.482Z,68
2023-10-12T23:42:35.192Z,68
2023-10-12T23:45:05.849Z,68
2023-10-12T23:47:36.787Z,68
2023-10-12T23:50:07.992Z,68
2023-10-12T23:52:38.885Z,68
2023-10-12T23:55:09.335Z,68
2023-10-12T23:57:39.794Z,68
